sensor_id;sensor_type;location;lat;lon;timestamp;temperature;humidity
13436;DHT22;6790;49.520;8.504;2023-05-10T00:00:05;14.10;99.90
13436;DHT22;6790;49.520;8.504;2023-05-10T00:02:31;13.80;99.90
13436;DHT22;6790;49.520;8.504;2023-05-10T00:04:57;13.40;99.90
13436;DHT22;6790;49.520;8.504;2023-05-10T00:07:22;13.90;99.90
13436;DHT22;6790;49.520;8.504;2023-05-10T00:09:48;13.40;99.90
13436;DHT22;6790;49.520;8.504;2023-05-10T00:12:14;13.50;99.90
13436;DHT22;6790;49.520;8.504;2023-05-10T00:14:40;14.00;99.90
13436;DHT22;6790;49.520;8.504;2023-05-10T00:17:05;13.70;99.90
13436;DHT22;6790;49.520;8.504;2023-05-10T00:19:31;14.10;99.90
13436;DHT22;6790;49.520;8.504;2023-05-10T00:21:57;13.40;99.90
13436;DHT22;6790;49.520;8.504;2023-05-10T00:24:23;13.60;99.90
13436;DHT22;6790;49.520;8.504;2023-05-10T00:26:48;13.40;99.90
13436;DHT22;6790;49.520;8.504;2023-05-10T00:29:14;13.40;99.90
13436;DHT22;6790;49.520;8.504;2023-05-10T00:31:40;13.90;99.90
13436;DHT22;6790;49.520;8.504;2023-05-10T00:34:05;13.40;99.90
13436;DHT22;6790;49.520;8.504;2023-05-10T00:36:31;13.40;99.90
13436;DHT22;6790;49.520;8.504;2023-05-10T00:38:57;14.00;99.90
13436;DHT22;6790;49.520;8.504;2023-05-10T00:41:22;13.70;99.90
13436;DHT22;6790;49.520;8.504;2023-05-10T00:43:48;13.60;99.90
13436;DHT22;6790;49.520;8.504;2023-05-10T00:46:15;13.30;99.90
13436;DHT22;6790;49.520;8.504;2023-05-10T00:48:41;13.50;99.90
13436;DHT22;6790;49.520;8.504;2023-05-10T00:51:07;13.30;99.90
13436;DHT22;6790;49.520;8.504;2023-05-10T00:53:34;13.50;99.90
13436;DHT22;6790;49.520;8.504;2023-05-10T00:56:00;13.70;99.90
13436;DHT22;6790;49.520;8.504;2023-05-10T00:58:28;13.70;99.90
13436;DHT22;6790;49.520;8.504;2023-05-10T01:00:55;13.80;99.90
13436;DHT22;6790;49.520;8.504;2023-05-10T01:03:22;13.70;99.90
13436;DHT22;6790;49.520;8.504;2023-05-10T01:05:48;13.10;99.90
13436;DHT22;6790;49.520;8.504;2023-05-10T01:08:13;13.10;99.90
13436;DHT22;6790;49.520;8.504;2023-05-10T01:10:39;13.70;99.90
13436;DHT22;6790;49.520;8.504;2023-05-10T01:13:06;13.50;99.90
13436;DHT22;6790;49.520;8.504;2023-05-10T01:15:32;13.20;99.90
13436;DHT22;6790;49.520;8.504;2023-05-10T01:17:58;13.40;99.90
13436;DHT22;6790;49.520;8.504;2023-05-10T01:20:24;13.10;99.90
13436;DHT22;6790;49.520;8.504;2023-05-10T01:23:19;13.70;99.90
13436;DHT22;6790;49.520;8.504;2023-05-10T01:26:46;13.70;99.90
13436;DHT22;6790;49.520;8.504;2023-05-10T01:35:51;13.30;99.90
13436;DHT22;6790;49.520;8.504;2023-05-10T01:38:51;13.70;99.90
13436;DHT22;6790;49.520;8.504;2023-05-10T01:47:44;13.30;99.90
13436;DHT22;6790;49.520;8.504;2023-05-10T01:50:19;13.70;99.90
13436;DHT22;6790;49.520;8.504;2023-05-10T01:52:52;13.50;99.90
13436;DHT22;6790;49.520;8.504;2023-05-10T01:55:21;13.70;99.90
13436;DHT22;6790;49.520;8.504;2023-05-10T01:57:56;13.70;99.90
13436;DHT22;6790;49.520;8.504;2023-05-10T02:00:32;13.60;99.90
13436;DHT22;6790;49.520;8.504;2023-05-10T02:03:00;13.40;99.90
13436;DHT22;6790;49.520;8.504;2023-05-10T02:05:30;13.20;99.90
13436;DHT22;6790;49.520;8.504;2023-05-10T02:07:59;13.10;99.90
13436;DHT22;6790;49.520;8.504;2023-05-10T02:10:27;13.60;99.90
13436;DHT22;6790;49.520;8.504;2023-05-10T02:12:54;13.10;99.90
13436;DHT22;6790;49.520;8.504;2023-05-10T02:15:23;13.50;99.90
13436;DHT22;6790;49.520;8.504;2023-05-10T02:17:50;13.10;99.90
13436;DHT22;6790;49.520;8.504;2023-05-10T02:20:18;13.10;99.90
13436;DHT22;6790;49.520;8.504;2023-05-10T02:22:45;13.70;99.90
13436;DHT22;6790;49.520;8.504;2023-05-10T02:25:13;13.20;99.90
13436;DHT22;6790;49.520;8.504;2023-05-10T02:27:41;13.60;99.90
13436;DHT22;6790;49.520;8.504;2023-05-10T02:30:08;13.10;99.90
13436;DHT22;6790;49.520;8.504;2023-05-10T02:32:35;13.10;99.90
13436;DHT22;6790;49.520;8.504;2023-05-10T02:35:03;13.10;99.90
13436;DHT22;6790;49.520;8.504;2023-05-10T02:37:29;13.60;99.90
13436;DHT22;6790;49.520;8.504;2023-05-10T02:39:55;13.10;99.90
13436;DHT22;6790;49.520;8.504;2023-05-10T02:42:29;13.60;99.90
13436;DHT22;6790;49.520;8.504;2023-05-10T02:45:00;13.30;99.90
13436;DHT22;6790;49.520;8.504;2023-05-10T02:47:28;13.10;99.90
13436;DHT22;6790;49.520;8.504;2023-05-10T02:49:54;13.10;99.90
13436;DHT22;6790;49.520;8.504;2023-05-10T02:52:25;13.40;99.90
13436;DHT22;6790;49.520;8.504;2023-05-10T02:54:58;13.30;99.90
13436;DHT22;6790;49.520;8.504;2023-05-10T02:57:29;13.10;99.90
13436;DHT22;6790;49.520;8.504;2023-05-10T02:59:57;13.30;99.90
13436;DHT22;6790;49.520;8.504;2023-05-10T03:02:23;13.50;99.90
13436;DHT22;6790;49.520;8.504;2023-05-10T03:04:49;13.60;99.90
13436;DHT22;6790;49.520;8.504;2023-05-10T03:07:15;13.30;99.90
13436;DHT22;6790;49.520;8.504;2023-05-10T03:09:41;13.70;99.90
13436;DHT22;6790;49.520;8.504;2023-05-10T03:15:16;13.40;99.90
13436;DHT22;6790;49.520;8.504;2023-05-10T03:18:00;13.20;99.90
13436;DHT22;6790;49.520;8.504;2023-05-10T03:20:38;13.60;99.90
13436;DHT22;6790;49.520;8.504;2023-05-10T03:23:22;13.20;99.90
13436;DHT22;6790;49.520;8.504;2023-05-10T03:25:56;13.20;99.90
13436;DHT22;6790;49.520;8.504;2023-05-10T03:28:25;13.20;99.90
13436;DHT22;6790;49.520;8.504;2023-05-10T03:30:53;13.40;99.90
13436;DHT22;6790;49.520;8.504;2023-05-10T03:33:20;13.60;99.90
13436;DHT22;6790;49.520;8.504;2023-05-10T03:35:45;13.20;99.90
13436;DHT22;6790;49.520;8.504;2023-05-10T03:38:12;13.20;99.90
13436;DHT22;6790;49.520;8.504;2023-05-10T03:40:38;13.40;99.90
13436;DHT22;6790;49.520;8.504;2023-05-10T03:43:04;13.20;99.90
13436;DHT22;6790;49.520;8.504;2023-05-10T03:45:30;13.30;99.90
13436;DHT22;6790;49.520;8.504;2023-05-10T03:47:57;13.10;99.90
13436;DHT22;6790;49.520;8.504;2023-05-10T03:50:23;13.10;99.90
13436;DHT22;6790;49.520;8.504;2023-05-10T03:52:49;13.40;99.90
13436;DHT22;6790;49.520;8.504;2023-05-10T03:55:15;13.40;99.90
13436;DHT22;6790;49.520;8.504;2023-05-10T03:57:41;12.90;99.90
13436;DHT22;6790;49.520;8.504;2023-05-10T04:00:08;12.80;99.90
13436;DHT22;6790;49.520;8.504;2023-05-10T04:02:34;13.20;99.90
13436;DHT22;6790;49.520;8.504;2023-05-10T04:05:00;12.90;99.90
13436;DHT22;6790;49.520;8.504;2023-05-10T04:07:26;12.80;99.90
13436;DHT22;6790;49.520;8.504;2023-05-10T04:09:52;12.80;99.90
13436;DHT22;6790;49.520;8.504;2023-05-10T04:12:17;12.60;99.90
13436;DHT22;6790;49.520;8.504;2023-05-10T04:14:43;13.00;99.90
13436;DHT22;6790;49.520;8.504;2023-05-10T04:17:09;13.00;99.90
13436;DHT22;6790;49.520;8.504;2023-05-10T04:19:34;12.50;99.90
13436;DHT22;6790;49.520;8.504;2023-05-10T04:22:02;12.50;99.90
13436;DHT22;6790;49.520;8.504;2023-05-10T04:24:27;12.80;99.90
13436;DHT22;6790;49.520;8.504;2023-05-10T04:26:54;12.70;99.90
13436;DHT22;6790;49.520;8.504;2023-05-10T04:29:20;12.60;99.90
13436;DHT22;6790;49.520;8.504;2023-05-10T04:31:46;12.90;99.90
13436;DHT22;6790;49.520;8.504;2023-05-10T04:34:11;12.60;99.90
13436;DHT22;6790;49.520;8.504;2023-05-10T04:36:37;12.60;99.90
13436;DHT22;6790;49.520;8.504;2023-05-10T04:39:03;13.00;99.90
13436;DHT22;6790;49.520;8.504;2023-05-10T04:41:29;12.90;99.90
13436;DHT22;6790;49.520;8.504;2023-05-10T04:43:55;13.00;99.90
13436;DHT22;6790;49.520;8.504;2023-05-10T04:46:21;12.70;99.90
13436;DHT22;6790;49.520;8.504;2023-05-10T04:48:47;12.80;99.90
13436;DHT22;6790;49.520;8.504;2023-05-10T04:51:12;12.90;99.90
13436;DHT22;6790;49.520;8.504;2023-05-10T04:53:38;13.20;99.90
13436;DHT22;6790;49.520;8.504;2023-05-10T04:56:04;13.20;99.90
13436;DHT22;6790;49.520;8.504;2023-05-10T04:58:30;13.20;99.90
13436;DHT22;6790;49.520;8.504;2023-05-10T05:00:55;12.80;99.90
13436;DHT22;6790;49.520;8.504;2023-05-10T05:03:21;13.30;99.90
13436;DHT22;6790;49.520;8.504;2023-05-10T05:05:47;12.90;99.90
13436;DHT22;6790;49.520;8.504;2023-05-10T05:08:13;13.20;99.90
13436;DHT22;6790;49.520;8.504;2023-05-10T05:10:39;13.20;99.90
13436;DHT22;6790;49.520;8.504;2023-05-10T05:13:04;13.10;99.90
13436;DHT22;6790;49.520;8.504;2023-05-10T05:15:30;13.30;99.90
13436;DHT22;6790;49.520;8.504;2023-05-10T05:17:56;13.20;99.90
13436;DHT22;6790;49.520;8.504;2023-05-10T05:20:22;13.50;99.90
13436;DHT22;6790;49.520;8.504;2023-05-10T05:22:48;13.40;99.90
13436;DHT22;6790;49.520;8.504;2023-05-10T05:25:13;13.50;99.90
13436;DHT22;6790;49.520;8.504;2023-05-10T05:27:40;13.50;99.90
13436;DHT22;6790;49.520;8.504;2023-05-10T05:30:06;13.60;99.90
13436;DHT22;6790;49.520;8.504;2023-05-10T05:32:33;13.60;99.90
13436;DHT22;6790;49.520;8.504;2023-05-10T05:34:58;13.50;99.90
13436;DHT22;6790;49.520;8.504;2023-05-10T05:37:25;13.50;99.90
13436;DHT22;6790;49.520;8.504;2023-05-10T05:39:51;13.70;99.90
13436;DHT22;6790;49.520;8.504;2023-05-10T05:42:16;13.60;99.90
13436;DHT22;6790;49.520;8.504;2023-05-10T05:44:44;13.40;99.90
13436;DHT22;6790;49.520;8.504;2023-05-10T05:47:10;13.30;99.90
13436;DHT22;6790;49.520;8.504;2023-05-10T05:49:36;13.60;99.90
13436;DHT22;6790;49.520;8.504;2023-05-10T05:52:03;13.90;99.90
13436;DHT22;6790;49.520;8.504;2023-05-10T05:54:30;13.60;99.90
13436;DHT22;6790;49.520;8.504;2023-05-10T05:56:57;13.80;99.90
13436;DHT22;6790;49.520;8.504;2023-05-10T05:59:26;13.90;99.90
13436;DHT22;6790;49.520;8.504;2023-05-10T06:01:54;13.60;99.90
13436;DHT22;6790;49.520;8.504;2023-05-10T06:04:20;13.90;99.90
13436;DHT22;6790;49.520;8.504;2023-05-10T06:06:46;13.70;99.90
13436;DHT22;6790;49.520;8.504;2023-05-10T06:09:12;13.70;99.90
13436;DHT22;6790;49.520;8.504;2023-05-10T06:11:37;13.70;99.90
13436;DHT22;6790;49.520;8.504;2023-05-10T06:14:04;14.10;99.90
13436;DHT22;6790;49.520;8.504;2023-05-10T06:16:32;14.10;99.90
13436;DHT22;6790;49.520;8.504;2023-05-10T06:18:57;13.90;99.90
13436;DHT22;6790;49.520;8.504;2023-05-10T06:21:23;13.90;99.90
13436;DHT22;6790;49.520;8.504;2023-05-10T06:23:49;14.30;99.90
13436;DHT22;6790;49.520;8.504;2023-05-10T06:26:14;14.30;99.90
13436;DHT22;6790;49.520;8.504;2023-05-10T06:28:40;14.20;99.90
13436;DHT22;6790;49.520;8.504;2023-05-10T06:31:06;14.30;99.90
13436;DHT22;6790;49.520;8.504;2023-05-10T06:33:32;14.30;99.90
13436;DHT22;6790;49.520;8.504;2023-05-10T06:35:58;14.00;99.90
13436;DHT22;6790;49.520;8.504;2023-05-10T06:38:24;14.20;99.90
13436;DHT22;6790;49.520;8.504;2023-05-10T06:40:50;14.40;99.90
13436;DHT22;6790;49.520;8.504;2023-05-10T06:43:16;14.20;99.90
13436;DHT22;6790;49.520;8.504;2023-05-10T06:45:42;14.20;99.90
13436;DHT22;6790;49.520;8.504;2023-05-10T06:48:08;14.20;99.90
13436;DHT22;6790;49.520;8.504;2023-05-10T06:50:33;14.50;99.90
13436;DHT22;6790;49.520;8.504;2023-05-10T06:53:00;14.30;99.90
13436;DHT22;6790;49.520;8.504;2023-05-10T06:55:27;14.60;99.90
13436;DHT22;6790;49.520;8.504;2023-05-10T06:57:53;14.40;99.90
13436;DHT22;6790;49.520;8.504;2023-05-10T07:00:19;14.60;99.90
13436;DHT22;6790;49.520;8.504;2023-05-10T07:02:45;14.60;99.90
13436;DHT22;6790;49.520;8.504;2023-05-10T07:05:12;14.70;99.90
13436;DHT22;6790;49.520;8.504;2023-05-10T07:07:37;14.60;99.90
13436;DHT22;6790;49.520;8.504;2023-05-10T07:10:03;14.60;99.90
13436;DHT22;6790;49.520;8.504;2023-05-10T07:12:29;14.90;99.90
13436;DHT22;6790;49.520;8.504;2023-05-10T07:14:55;14.90;99.90
13436;DHT22;6790;49.520;8.504;2023-05-10T07:17:21;15.00;99.90
13436;DHT22;6790;49.520;8.504;2023-05-10T07:19:47;15.00;99.90
13436;DHT22;6790;49.520;8.504;2023-05-10T07:22:12;15.20;99.90
13436;DHT22;6790;49.520;8.504;2023-05-10T07:24:38;15.30;99.90
13436;DHT22;6790;49.520;8.504;2023-05-10T07:27:04;15.40;99.90
13436;DHT22;6790;49.520;8.504;2023-05-10T07:29:30;15.60;99.90
13436;DHT22;6790;49.520;8.504;2023-05-10T07:31:55;15.30;99.90
13436;DHT22;6790;49.520;8.504;2023-05-10T07:34:21;15.60;99.90
13436;DHT22;6790;49.520;8.504;2023-05-10T07:36:47;15.60;99.90
13436;DHT22;6790;49.520;8.504;2023-05-10T07:39:13;15.60;99.90
13436;DHT22;6790;49.520;8.504;2023-05-10T07:41:38;15.80;99.90
13436;DHT22;6790;49.520;8.504;2023-05-10T07:44:06;16.00;99.90
13436;DHT22;6790;49.520;8.504;2023-05-10T07:46:31;15.90;99.90
13436;DHT22;6790;49.520;8.504;2023-05-10T07:48:57;15.90;99.90
13436;DHT22;6790;49.520;8.504;2023-05-10T07:51:23;16.00;99.90
13436;DHT22;6790;49.520;8.504;2023-05-10T07:53:48;15.90;99.90
13436;DHT22;6790;49.520;8.504;2023-05-10T07:56:24;16.10;99.90
13436;DHT22;6790;49.520;8.504;2023-05-10T07:58:55;16.00;99.90
13436;DHT22;6790;49.520;8.504;2023-05-10T08:01:22;16.00;99.90
13436;DHT22;6790;49.520;8.504;2023-05-10T08:03:48;15.90;99.90
13436;DHT22;6790;49.520;8.504;2023-05-10T08:06:17;15.70;99.90
13436;DHT22;6790;49.520;8.504;2023-05-10T08:08:43;15.60;99.90
13436;DHT22;6790;49.520;8.504;2023-05-10T08:11:10;15.50;99.90
13436;DHT22;6790;49.520;8.504;2023-05-10T08:13:36;15.60;99.90
13436;DHT22;6790;49.520;8.504;2023-05-10T08:16:02;15.50;99.90
13436;DHT22;6790;49.520;8.504;2023-05-10T08:18:28;15.30;99.90
13436;DHT22;6790;49.520;8.504;2023-05-10T08:20:54;15.30;99.90
13436;DHT22;6790;49.520;8.504;2023-05-10T08:23:19;15.30;99.90
13436;DHT22;6790;49.520;8.504;2023-05-10T08:25:45;15.40;99.90
13436;DHT22;6790;49.520;8.504;2023-05-10T08:28:11;15.70;99.90
13436;DHT22;6790;49.520;8.504;2023-05-10T08:30:37;16.00;99.90
13436;DHT22;6790;49.520;8.504;2023-05-10T08:33:02;16.30;99.90
13436;DHT22;6790;49.520;8.504;2023-05-10T08:35:28;16.40;99.90
13436;DHT22;6790;49.520;8.504;2023-05-10T08:37:54;16.40;99.90
13436;DHT22;6790;49.520;8.504;2023-05-10T08:40:19;16.60;99.90
13436;DHT22;6790;49.520;8.504;2023-05-10T08:42:54;16.70;99.90
13436;DHT22;6790;49.520;8.504;2023-05-10T08:45:24;16.70;99.90
13436;DHT22;6790;49.520;8.504;2023-05-10T08:47:51;16.70;99.90
13436;DHT22;6790;49.520;8.504;2023-05-10T08:50:20;16.50;99.90
13436;DHT22;6790;49.520;8.504;2023-05-10T08:52:48;16.30;99.90
13436;DHT22;6790;49.520;8.504;2023-05-10T08:55:17;16.00;99.90
13436;DHT22;6790;49.520;8.504;2023-05-10T08:57:43;15.80;99.90
13436;DHT22;6790;49.520;8.504;2023-05-10T09:00:09;15.70;99.90
13436;DHT22;6790;49.520;8.504;2023-05-10T09:02:36;15.40;99.90
13436;DHT22;6790;49.520;8.504;2023-05-10T09:05:03;15.20;99.90
13436;DHT22;6790;49.520;8.504;2023-05-10T09:07:30;15.10;99.90
13436;DHT22;6790;49.520;8.504;2023-05-10T09:09:56;15.00;99.90
13436;DHT22;6790;49.520;8.504;2023-05-10T09:12:22;15.00;99.90
13436;DHT22;6790;49.520;8.504;2023-05-10T09:14:49;15.00;99.90
13436;DHT22;6790;49.520;8.504;2023-05-10T09:17:17;15.00;99.90
13436;DHT22;6790;49.520;8.504;2023-05-10T09:19:45;15.10;99.90
13436;DHT22;6790;49.520;8.504;2023-05-10T09:22:11;15.20;99.90
13436;DHT22;6790;49.520;8.504;2023-05-10T09:24:36;15.30;99.90
13436;DHT22;6790;49.520;8.504;2023-05-10T09:27:07;15.40;99.90
13436;DHT22;6790;49.520;8.504;2023-05-10T09:29:41;15.60;99.90
13436;DHT22;6790;49.520;8.504;2023-05-10T09:32:07;15.70;99.90
13436;DHT22;6790;49.520;8.504;2023-05-10T09:34:33;15.60;99.90
13436;DHT22;6790;49.520;8.504;2023-05-10T09:37:02;15.70;99.90
13436;DHT22;6790;49.520;8.504;2023-05-10T09:39:36;16.00;99.90
13436;DHT22;6790;49.520;8.504;2023-05-10T09:42:07;16.20;99.90
13436;DHT22;6790;49.520;8.504;2023-05-10T09:44:34;16.30;99.90
13436;DHT22;6790;49.520;8.504;2023-05-10T09:47:01;16.50;99.90
13436;DHT22;6790;49.520;8.504;2023-05-10T09:49:28;16.50;99.90
13436;DHT22;6790;49.520;8.504;2023-05-10T09:52:05;16.40;99.90
13436;DHT22;6790;49.520;8.504;2023-05-10T09:54:32;16.30;99.90
13436;DHT22;6790;49.520;8.504;2023-05-10T09:56:58;15.90;99.90
13436;DHT22;6790;49.520;8.504;2023-05-10T09:59:27;15.50;99.90
13436;DHT22;6790;49.520;8.504;2023-05-10T10:02:00;15.40;99.90
13436;DHT22;6790;49.520;8.504;2023-05-10T10:04:26;15.10;99.90
13436;DHT22;6790;49.520;8.504;2023-05-10T10:06:59;14.80;99.90
13436;DHT22;6790;49.520;8.504;2023-05-10T10:09:27;14.80;99.90
13436;DHT22;6790;49.520;8.504;2023-05-10T10:11:54;14.90;99.90
13436;DHT22;6790;49.520;8.504;2023-05-10T10:14:20;15.00;99.90
13436;DHT22;6790;49.520;8.504;2023-05-10T10:16:49;15.00;99.90
13436;DHT22;6790;49.520;8.504;2023-05-10T10:19:15;15.10;99.90
13436;DHT22;6790;49.520;8.504;2023-05-10T10:21:41;15.20;99.90
13436;DHT22;6790;49.520;8.504;2023-05-10T10:24:06;15.30;99.90
13436;DHT22;6790;49.520;8.504;2023-05-10T10:26:33;15.50;99.90
13436;DHT22;6790;49.520;8.504;2023-05-10T10:29:20;15.70;99.90
13436;DHT22;6790;49.520;8.504;2023-05-10T10:32:03;15.80;99.90
13436;DHT22;6790;49.520;8.504;2023-05-10T10:34:34;16.10;99.90
13436;DHT22;6790;49.520;8.504;2023-05-10T10:37:05;16.40;99.90
13436;DHT22;6790;49.520;8.504;2023-05-10T10:39:32;16.80;99.90
13436;DHT22;6790;49.520;8.504;2023-05-10T10:41:58;16.70;99.90
13436;DHT22;6790;49.520;8.504;2023-05-10T10:50:03;16.40;99.90
13436;DHT22;6790;49.520;8.504;2023-05-10T10:52:39;16.70;99.90
13436;DHT22;6790;49.520;8.504;2023-05-10T10:57:52;17.10;99.90
13436;DHT22;6790;49.520;8.504;2023-05-10T11:00:33;17.30;99.90
13436;DHT22;6790;49.520;8.504;2023-05-10T11:03:06;17.20;99.90
13436;DHT22;6790;49.520;8.504;2023-05-10T11:05:42;17.30;99.90
13436;DHT22;6790;49.520;8.504;2023-05-10T11:08:21;17.40;99.90
13436;DHT22;6790;49.520;8.504;2023-05-10T11:15:59;18.00;99.90
13436;DHT22;6790;49.520;8.504;2023-05-10T11:18:36;18.00;99.90
13436;DHT22;6790;49.520;8.504;2023-05-10T11:21:03;18.00;99.90
13436;DHT22;6790;49.520;8.504;2023-05-10T11:26:07;18.30;99.90
13436;DHT22;6790;49.520;8.504;2023-05-10T11:28:47;18.20;99.90
13436;DHT22;6790;49.520;8.504;2023-05-10T11:31:14;18.00;99.90
13436;DHT22;6790;49.520;8.504;2023-05-10T11:36:18;17.60;99.90
13436;DHT22;6790;49.520;8.504;2023-05-10T11:38:45;17.50;99.90
13436;DHT22;6790;49.520;8.504;2023-05-10T11:41:12;17.30;99.90
13436;DHT22;6790;49.520;8.504;2023-05-10T11:43:39;17.30;99.90
13436;DHT22;6790;49.520;8.504;2023-05-10T11:46:12;17.70;99.90
13436;DHT22;6790;49.520;8.504;2023-05-10T11:48:42;17.90;99.90
13436;DHT22;6790;49.520;8.504;2023-05-10T11:51:08;18.10;99.90
13436;DHT22;6790;49.520;8.504;2023-05-10T11:53:35;18.20;99.90
13436;DHT22;6790;49.520;8.504;2023-05-10T11:56:11;18.10;99.90
13436;DHT22;6790;49.520;8.504;2023-05-10T11:58:38;18.10;99.90
13436;DHT22;6790;49.520;8.504;2023-05-10T12:01:05;17.90;99.90
13436;DHT22;6790;49.520;8.504;2023-05-10T12:03:32;18.20;99.90
13436;DHT22;6790;49.520;8.504;2023-05-10T12:05:59;18.40;99.90
13436;DHT22;6790;49.520;8.504;2023-05-10T12:08:27;18.30;99.90
13436;DHT22;6790;49.520;8.504;2023-05-10T12:11:07;18.10;99.90
13436;DHT22;6790;49.520;8.504;2023-05-10T12:13:39;18.30;99.90
13436;DHT22;6790;49.520;8.504;2023-05-10T12:16:20;18.20;99.90
13436;DHT22;6790;49.520;8.504;2023-05-10T12:18:57;17.90;99.90
13436;DHT22;6790;49.520;8.504;2023-05-10T12:21:24;17.60;99.90
13436;DHT22;6790;49.520;8.504;2023-05-10T12:23:52;17.30;99.90
13436;DHT22;6790;49.520;8.504;2023-05-10T12:26:22;17.20;99.90
13436;DHT22;6790;49.520;8.504;2023-05-10T12:28:48;17.40;99.90
13436;DHT22;6790;49.520;8.504;2023-05-10T12:31:13;17.30;99.90
13436;DHT22;6790;49.520;8.504;2023-05-10T12:33:41;17.40;99.90
13436;DHT22;6790;49.520;8.504;2023-05-10T12:36:09;17.50;99.90
13436;DHT22;6790;49.520;8.504;2023-05-10T12:38:45;17.50;99.90
13436;DHT22;6790;49.520;8.504;2023-05-10T12:41:17;17.60;99.90
13436;DHT22;6790;49.520;8.504;2023-05-10T12:43:44;17.60;99.90
13436;DHT22;6790;49.520;8.504;2023-05-10T12:46:12;17.70;99.90
13436;DHT22;6790;49.520;8.504;2023-05-10T12:48:43;17.60;99.90
13436;DHT22;6790;49.520;8.504;2023-05-10T12:51:10;17.70;99.90
13436;DHT22;6790;49.520;8.504;2023-05-10T12:53:42;18.20;99.90
13436;DHT22;6790;49.520;8.504;2023-05-10T12:56:08;18.70;99.90
13436;DHT22;6790;49.520;8.504;2023-05-10T12:58:34;18.90;99.90
13436;DHT22;6790;49.520;8.504;2023-05-10T13:01:00;18.80;99.90
13436;DHT22;6790;49.520;8.504;2023-05-10T13:03:26;18.90;99.90
13436;DHT22;6790;49.520;8.504;2023-05-10T13:05:52;18.90;99.90
13436;DHT22;6790;49.520;8.504;2023-05-10T13:08:17;18.80;99.90
13436;DHT22;6790;49.520;8.504;2023-05-10T13:10:43;18.60;99.90
13436;DHT22;6790;49.520;8.504;2023-05-10T13:13:09;18.70;99.90
13436;DHT22;6790;49.520;8.504;2023-05-10T13:15:35;18.50;99.90
13436;DHT22;6790;49.520;8.504;2023-05-10T13:18:00;18.60;99.90
13436;DHT22;6790;49.520;8.504;2023-05-10T13:20:26;18.80;99.90
13436;DHT22;6790;49.520;8.504;2023-05-10T13:22:52;19.10;99.90
13436;DHT22;6790;49.520;8.504;2023-05-10T13:25:18;19.20;99.90
13436;DHT22;6790;49.520;8.504;2023-05-10T13:27:45;19.40;99.90
13436;DHT22;6790;49.520;8.504;2023-05-10T13:30:11;19.40;99.90
13436;DHT22;6790;49.520;8.504;2023-05-10T13:32:37;19.50;99.90
13436;DHT22;6790;49.520;8.504;2023-05-10T13:35:04;19.10;99.90
13436;DHT22;6790;49.520;8.504;2023-05-10T13:37:31;19.40;99.90
13436;DHT22;6790;49.520;8.504;2023-05-10T13:39:57;19.70;99.90
13436;DHT22;6790;49.520;8.504;2023-05-10T13:42:23;19.50;99.90
13436;DHT22;6790;49.520;8.504;2023-05-10T13:44:50;19.50;99.90
13436;DHT22;6790;49.520;8.504;2023-05-10T13:47:15;19.30;99.90
13436;DHT22;6790;49.520;8.504;2023-05-10T13:49:41;18.70;99.90
13436;DHT22;6790;49.520;8.504;2023-05-10T13:52:07;18.60;99.90
13436;DHT22;6790;49.520;8.504;2023-05-10T13:54:35;18.30;99.90
13436;DHT22;6790;49.520;8.504;2023-05-10T13:57:02;18.20;99.90
13436;DHT22;6790;49.520;8.504;2023-05-10T13:59:28;18.70;99.90
13436;DHT22;6790;49.520;8.504;2023-05-10T14:01:54;18.80;99.90
13436;DHT22;6790;49.520;8.504;2023-05-10T14:04:19;18.90;99.90
13436;DHT22;6790;49.520;8.504;2023-05-10T14:06:45;18.80;99.90
13436;DHT22;6790;49.520;8.504;2023-05-10T14:09:11;18.80;99.90
13436;DHT22;6790;49.520;8.504;2023-05-10T14:11:37;18.90;99.90
13436;DHT22;6790;49.520;8.504;2023-05-10T14:14:07;19.00;99.90
13436;DHT22;6790;49.520;8.504;2023-05-10T14:16:33;18.60;99.90
13436;DHT22;6790;49.520;8.504;2023-05-10T14:18:59;18.50;99.90
13436;DHT22;6790;49.520;8.504;2023-05-10T14:21:25;18.60;99.90
13436;DHT22;6790;49.520;8.504;2023-05-10T14:23:50;18.70;99.90
13436;DHT22;6790;49.520;8.504;2023-05-10T14:26:16;18.60;99.90
13436;DHT22;6790;49.520;8.504;2023-05-10T14:28:42;18.50;99.90
13436;DHT22;6790;49.520;8.504;2023-05-10T14:31:07;18.50;99.90
13436;DHT22;6790;49.520;8.504;2023-05-10T14:33:33;18.60;99.90
13436;DHT22;6790;49.520;8.504;2023-05-10T14:35:59;18.60;99.90
13436;DHT22;6790;49.520;8.504;2023-05-10T14:38:25;18.40;99.90
13436;DHT22;6790;49.520;8.504;2023-05-10T14:40:51;18.30;99.90
13436;DHT22;6790;49.520;8.504;2023-05-10T14:43:17;18.30;99.90
13436;DHT22;6790;49.520;8.504;2023-05-10T14:45:43;18.40;99.90
13436;DHT22;6790;49.520;8.504;2023-05-10T14:48:10;18.50;99.90
13436;DHT22;6790;49.520;8.504;2023-05-10T14:50:40;18.50;99.90
13436;DHT22;6790;49.520;8.504;2023-05-10T14:53:06;18.60;99.90
13436;DHT22;6790;49.520;8.504;2023-05-10T14:55:32;18.60;99.90
13436;DHT22;6790;49.520;8.504;2023-05-10T14:57:58;18.70;99.90
13436;DHT22;6790;49.520;8.504;2023-05-10T15:00:23;18.70;99.90
13436;DHT22;6790;49.520;8.504;2023-05-10T15:02:49;18.70;99.90
13436;DHT22;6790;49.520;8.504;2023-05-10T15:05:15;18.70;99.90
13436;DHT22;6790;49.520;8.504;2023-05-10T15:07:40;18.60;99.90
13436;DHT22;6790;49.520;8.504;2023-05-10T15:10:09;18.30;99.90
13436;DHT22;6790;49.520;8.504;2023-05-10T15:12:35;18.40;99.90
13436;DHT22;6790;49.520;8.504;2023-05-10T15:15:01;18.40;99.90
13436;DHT22;6790;49.520;8.504;2023-05-10T15:17:27;18.50;99.90
13436;DHT22;6790;49.520;8.504;2023-05-10T15:19:53;18.50;99.90
13436;DHT22;6790;49.520;8.504;2023-05-10T15:22:18;18.70;99.90
13436;DHT22;6790;49.520;8.504;2023-05-10T15:24:44;18.70;99.90
13436;DHT22;6790;49.520;8.504;2023-05-10T15:27:10;18.70;99.90
13436;DHT22;6790;49.520;8.504;2023-05-10T15:29:35;18.60;99.90
13436;DHT22;6790;49.520;8.504;2023-05-10T15:32:02;18.40;99.90
13436;DHT22;6790;49.520;8.504;2023-05-10T15:34:28;18.50;99.90
13436;DHT22;6790;49.520;8.504;2023-05-10T15:36:53;18.50;99.90
13436;DHT22;6790;49.520;8.504;2023-05-10T15:39:19;18.60;99.90
13436;DHT22;6790;49.520;8.504;2023-05-10T15:41:45;18.50;99.90
13436;DHT22;6790;49.520;8.504;2023-05-10T15:44:11;18.60;99.90
13436;DHT22;6790;49.520;8.504;2023-05-10T15:46:36;18.80;99.90
13436;DHT22;6790;49.520;8.504;2023-05-10T15:49:03;19.00;99.90
13436;DHT22;6790;49.520;8.504;2023-05-10T15:51:29;19.20;99.90
13436;DHT22;6790;49.520;8.504;2023-05-10T15:53:55;19.80;99.90
13436;DHT22;6790;49.520;8.504;2023-05-10T15:56:21;19.90;98.70
13436;DHT22;6790;49.520;8.504;2023-05-10T15:58:47;20.60;99.90
13436;DHT22;6790;49.520;8.504;2023-05-10T16:01:13;20.00;99.80
13436;DHT22;6790;49.520;8.504;2023-05-10T16:03:39;19.20;98.60
13436;DHT22;6790;49.520;8.504;2023-05-10T16:06:05;18.80;99.90
13436;DHT22;6790;49.520;8.504;2023-05-10T16:08:31;18.50;99.90
13436;DHT22;6790;49.520;8.504;2023-05-10T16:10:58;18.40;99.90
13436;DHT22;6790;49.520;8.504;2023-05-10T16:13:24;18.40;99.90
13436;DHT22;6790;49.520;8.504;2023-05-10T16:15:50;18.50;99.90
13436;DHT22;6790;49.520;8.504;2023-05-10T16:18:18;18.50;99.90
13436;DHT22;6790;49.520;8.504;2023-05-10T16:20:44;18.60;99.90